Language: 


Des rapports , des résumés tant et plus, au choix de chacun....


Données Historiques de Météogheer
Journalier Rapport pour Janvier 17, 2018 Unitée:  Les deux    Impériale   Métrique
Suivant Jour »
Journalier Hebdomadaire Mensuel Annuel Sur mesure
  Max: Min: Moyenne:
Température: 46.4 °F /  8.0 °C 36.3 °F /  2.4 °C 41 °F /  5 °C
Point de rosée: 39.2 °F /  4.0 °C 30.2 °F /  -1.0 °C 33.8 °F /  1 °C
Humidité: 94% 55% 75%
Vent: 22.1mph /  35.6km/h - 9.3mph /  14.9km/h
Rafales: 23.9mph /  38.5km/h - -
Vent- - West
Pression: 29.8 in /  1009.0 hPa 29.4 in /  995.1 hPa -
Pluie: 0 in /  0.0 mm    
Historical Graphs
 
 
Données tabulaires pour Janvier 17, 2018
Heure Température Point de rosée Pression Vent Vent Rafales Humidité Pluie Taux (Horaire) Conditions
00:01 39.6 °F /  4.2 °C 37.4 °F /  3.0 °C 29.4in /  995.1hPa West 14.1mph /  22.7km/h 15.4mph /  24.8km/h 94% 0in /  0.0mm
00:12 39.6 °F /  4.2 °C 37.4 °F /  3.0 °C 29.4in /  995.1hPa West 17.2mph /  27.7km/h 17.2mph /  27.7km/h 94% 0in /  0.0mm
00:17 39.9 °F /  4.4 °C 35.6 °F /  2.0 °C 29.4in /  995.1hPa WSW 12.1mph /  19.5km/h 17.2mph /  27.7km/h 85% 0in /  0.0mm
00:31 39.9 °F /  4.4 °C 35.6 °F /  2.0 °C 29.4in /  995.1hPa West 15.2mph /  24.5km/h 15.2mph /  24.5km/h 85% 0in /  0.0mm
00:37 39.9 °F /  4.4 °C 35.6 °F /  2.0 °C 29.4in /  995.1hPa WNW 12.8mph /  20.6km/h 18.8mph /  30.2km/h 85% 0in /  0.0mm
00:59 39.9 °F /  4.4 °C 35.6 °F /  2.0 °C 29.4in /  995.1hPa West 14.8mph /  23.8km/h 15.7mph /  25.3km/h 85% 0in /  0.0mm
01:19 39.9 °F /  4.4 °C 35.6 °F /  2.0 °C 29.4in /  996.2hPa West 6.3mph /  10.1km/h 15.9mph /  25.6km/h 85% 0in /  0.0mm
01:28 39.9 °F /  4.4 °C 35.6 °F /  2.0 °C 29.4in /  996.2hPa West 9.6mph /  15.4km/h 19.9mph /  32.0km/h 85% 0in /  0.0mm
01:46 39.9 °F /  4.4 °C 35.6 °F /  2.0 °C 29.4in /  995.1hPa West 8.1mph /  13.0km/h 15.2mph /  24.5km/h 85% 0in /  0.0mm
01:52 39.9 °F /  4.4 °C 35.6 °F /  2.0 °C 29.4in /  995.1hPa West 5.4mph /  8.7km/h 15.2mph /  24.5km/h 85% 0in /  0.0mm
01:59 39.9 °F /  4.4 °C 35.6 °F /  2.0 °C 29.4in /  995.1hPa WSW 7.8mph /  12.6km/h 13.9mph /  22.4km/h 85% 0in /  0.0mm
02:04 39.9 °F /  4.4 °C 35.6 °F /  2.0 °C 29.4in /  995.1hPa West 9.8mph /  15.8km/h 13.9mph /  22.4km/h 85% 0in /  0.0mm
02:12 39.9 °F /  4.4 °C 33.8 °F /  1.0 °C 29.4in /  995.1hPa WSW 6.5mph /  10.5km/h 14.3mph /  23.0km/h 75% 0in /  0.0mm
02:25 39.9 °F /  4.4 °C 33.8 °F /  1.0 °C 29.4in /  995.1hPa West 8.7mph /  14.0km/h 11.4mph /  18.3km/h 75% 0in /  0.0mm
02:45 39.9 °F /  4.4 °C 33.8 °F /  1.0 °C 29.4in /  995.1hPa West 11mph /  17.7km/h 17.2mph /  27.7km/h 75% 0in /  0.0mm
02:53 39.9 °F /  4.4 °C 33.8 °F /  1.0 °C 29.4in /  995.1hPa WSW 17.4mph /  28.0km/h 17.4mph /  28.0km/h 75% 0in /  0.0mm
02:58 39.9 °F /  4.4 °C 33.8 °F /  1.0 °C 29.4in /  996.2hPa WNW 14.3mph /  23.0km/h 17.4mph /  28.0km/h 75% 0in /  0.0mm
03:28 40.1 °F /  4.5 °C 32 °F /  0.0 °C 29.4in /  996.2hPa West 12.3mph /  19.8km/h 19.7mph /  31.7km/h 71% 0in /  0.0mm
03:35 39.9 °F /  4.4 °C 32 °F /  0.0 °C 29.4in /  996.2hPa WSW 10.3mph /  16.6km/h 19.7mph /  31.7km/h 71% 0in /  0.0mm
03:42 39.7 °F /  4.3 °C 32 °F /  0.0 °C 29.4in /  996.8hPa WNW 7.8mph /  12.6km/h 16.3mph /  26.2km/h 71% 0in /  0.0mm
03:50 39.2 °F /  4.0 °C 30.2 °F /  -1.0 °C 29.4in /  996.8hPa West 16.3mph /  26.2km/h 16.3mph /  26.2km/h 71% 0in /  0.0mm
03:55 39 °F /  3.9 °C 32 °F /  0.0 °C 29.4in /  996.8hPa WSW 8.5mph /  13.7km/h 16.3mph /  26.2km/h 72% 0in /  0.0mm
04:04 38.7 °F /  3.7 °C 30.2 °F /  -1.0 °C 29.4in /  996.8hPa SW 21.9mph /  35.2km/h 21.9mph /  35.2km/h 72% 0in /  0.0mm
04:12 38.5 °F /  3.6 °C 30.2 °F /  -1.0 °C 29.4in /  996.8hPa NW 8.5mph /  13.7km/h 21.9mph /  35.2km/h 72% 0in /  0.0mm
04:20 38.3 °F /  3.5 °C 30.2 °F /  -1.0 °C 29.4in /  996.8hPa West 15.4mph /  24.8km/h 16.8mph /  27.0km/h 73% 0in /  0.0mm
04:27 38.1 °F /  3.4 °C 30.2 °F /  -1.0 °C 29.4in /  996.8hPa WSW 13.6mph /  21.9km/h 15.9mph /  25.6km/h 73% 0in /  0.0mm
04:33 38.1 °F /  3.4 °C 30.2 °F /  -1.0 °C 29.4in /  996.8hPa WSW 10.5mph /  16.9km/h 15.4mph /  24.8km/h 73% 0in /  0.0mm
04:45 38.1 °F /  3.4 °C 30.2 °F /  -1.0 °C 29.4in /  996.8hPa West 10.3mph /  16.6km/h 14.3mph /  23.0km/h 73% 0in /  0.0mm
04:56 38.3 °F /  3.5 °C 30.2 °F /  -1.0 °C 29.4in /  996.8hPa WSW 11.9mph /  19.1km/h 16.6mph /  26.7km/h 73% 0in /  0.0mm
05:14 38.5 °F /  3.6 °C 30.2 °F /  -1.0 °C 29.4in /  996.8hPa WNW 3.8mph /  6.1km/h 14.1mph /  22.7km/h 72% 0in /  0.0mm
05:42 37.9 °F /  3.3 °C 30.2 °F /  -1.0 °C 29.5in /  997.9hPa WNW 6.3mph /  10.1km/h 17.2mph /  27.7km/h 71% 0in /  0.0mm
05:48 37.9 °F /  3.3 °C 30.2 °F /  -1.0 °C 29.5in /  997.9hPa West 7.4mph /  11.9km/h 17.2mph /  27.7km/h 71% 0in /  0.0mm
05:56 37.9 °F /  3.3 °C 30.2 °F /  -1.0 °C 29.5in /  998.9hPa West 9.8mph /  15.8km/h 15.4mph /  24.8km/h 71% 0in /  0.0mm
06:12 37.9 °F /  3.3 °C 30.2 °F /  -1.0 °C 29.5in /  998.9hPa WNW 13mph /  20.9km/h 20.4mph /  32.8km/h 71% 0in /  0.0mm
06:18 37.9 °F /  3.3 °C 30.2 °F /  -1.0 °C 29.5in /  998.9hPa SSW 17.4mph /  28.0km/h 17.4mph /  28.0km/h 72% 0in /  0.0mm
06:36 37.9 °F /  3.3 °C 30.2 °F /  -1.0 °C 29.5in /  998.9hPa West 17mph /  27.4km/h 17mph /  27.4km/h 72% 0in /  0.0mm
06:41 37.9 °F /  3.3 °C 30.2 °F /  -1.0 °C 29.5in /  998.9hPa WNW 2.9mph /  4.7km/h 17mph /  27.4km/h 72% 0in /  0.0mm
06:47 37.9 °F /  3.3 °C 30.2 °F /  -1.0 °C 29.5in /  998.9hPa WNW 4.3mph /  6.9km/h 17.4mph /  28.0km/h 72% 0in /  0.0mm
06:57 37.9 °F /  3.3 °C 30.2 °F /  -1.0 °C 29.5in /  997.9hPa WSW 6mph /  9.7km/h 14.3mph /  23.0km/h 72% 0in /  0.0mm
07:04 37.9 °F /  3.3 °C 30.2 °F /  -1.0 °C 29.5in /  997.9hPa South 8.5mph /  13.7km/h 12.5mph /  20.1km/h 72% 0in /  0.0mm
07:23 37.9 °F /  3.3 °C 30.2 °F /  -1.0 °C 29.5in /  999.9hPa SW 12.8mph /  20.6km/h 17.2mph /  27.7km/h 72% 0in /  0.0mm
07:35 37.4 °F /  3.0 °C 30.2 °F /  -1.0 °C 29.5in /  999.9hPa WNW 8.7mph /  14.0km/h 19.5mph /  31.4km/h 74% 0in /  0.0mm
07:44 37.8 °F /  3.2 °C 32 °F /  0.0 °C 29.6in /  1000.9hPa West 13.2mph /  21.2km/h 15.2mph /  24.5km/h 75% 0in /  0.0mm
07:51 37.9 °F /  3.3 °C 32 °F /  0.0 °C 29.6in /  1000.9hPa West 16.3mph /  26.2km/h 16.3mph /  26.2km/h 75% 0in /  0.0mm
08:12 37.9 °F /  3.3 °C 30.2 °F /  -1.0 °C 29.6in /  1000.9hPa West 8.1mph /  13.0km/h 17mph /  27.4km/h 73% 0in /  0.0mm
08:30 37.8 °F /  3.2 °C 30.2 °F /  -1.0 °C 29.6in /  1001.9hPa West 13mph /  20.9km/h 13mph /  20.9km/h 73% 0in /  0.0mm
08:35 37.6 °F /  3.1 °C 30.2 °F /  -1.0 °C 29.6in /  1001.9hPa West 11.2mph /  18.0km/h 13.9mph /  22.4km/h 73% 0in /  0.0mm
08:47 37.4 °F /  3.0 °C 30.2 °F /  -1.0 °C 29.6in /  1001.9hPa West 10.5mph /  16.9km/h 15.2mph /  24.5km/h 73% 0in /  0.0mm
08:56 37.6 °F /  3.1 °C 30.2 °F /  -1.0 °C 29.6in /  1001.9hPa West 5.4mph /  8.7km/h 17.2mph /  27.7km/h 73% 0in /  0.0mm
09:09 37.9 °F /  3.3 °C 30.2 °F /  -1.0 °C 29.6in /  1001.9hPa WSW 8.5mph /  13.7km/h 19.7mph /  31.7km/h 74% 0in /  0.0mm
09:17 37.9 °F /  3.3 °C 30.2 °F /  -1.0 °C 29.6in /  1001.9hPa West 10.7mph /  17.2km/h 15.7mph /  25.3km/h 74% 0in /  0.0mm
09:23 37.9 °F /  3.3 °C 30.2 °F /  -1.0 °C 29.6in /  1001.9hPa West 10.3mph /  16.6km/h 15.9mph /  25.6km/h 74% 0in /  0.0mm
09:43 38.5 °F /  3.6 °C 32 °F /  0.0 °C 29.6in /  1002.9hPa WSW 13.2mph /  21.2km/h 16.8mph /  27.0km/h 75% 0in /  0.0mm
09:50 38.5 °F /  3.6 °C 32 °F /  0.0 °C 29.6in /  1002.9hPa SW 5.8mph /  9.3km/h 14.8mph /  23.8km/h 75% 0in /  0.0mm
09:56 38.8 °F /  3.8 °C 32 °F /  0.0 °C 29.6in /  1002.9hPa WSW 11mph /  17.7km/h 15.2mph /  24.5km/h 75% 0in /  0.0mm
10:05 39.2 °F /  4.0 °C 32 °F /  0.0 °C 29.6in /  1002.9hPa West 8.5mph /  13.7km/h 14.3mph /  23.0km/h 74% 0in /  0.0mm
10:11 39.2 °F /  4.0 °C 32 °F /  0.0 °C 29.6in /  1003.9hPa WSW 16.3mph /  26.2km/h 16.3mph /  26.2km/h 74% 0in /  0.0mm
10:17 39.6 °F /  4.2 °C 32 °F /  0.0 °C 29.6in /  1003.9hPa SW 9.2mph /  14.8km/h 16.3mph /  26.2km/h 73% 0in /  0.0mm
10:32 40.3 °F /  4.6 °C 32 °F /  0.0 °C 29.7in /  1005.0hPa WSW 11.9mph /  19.1km/h 20.8mph /  33.5km/h 71% 0in /  0.0mm
10:48 41.4 °F /  5.2 °C 32 °F /  0.0 °C 29.7in /  1005.0hPa WSW 7.6mph /  12.2km/h 14.5mph /  23.3km/h 70% 0in /  0.0mm
10:56 41.9 °F /  5.5 °C 33.8 °F /  1.0 °C 29.7in /  1005.0hPa WNW 13mph /  20.9km/h 16.1mph /  25.9km/h 70% 0in /  0.0mm
11:02 42.3 °F /  5.7 °C 33.8 °F /  1.0 °C 29.7in /  1005.0hPa West 15.2mph /  24.5km/h 15.4mph /  24.8km/h 69% 0in /  0.0mm
11:17 43.2 °F /  6.2 °C 33.8 °F /  1.0 °C 29.6in /  1003.9hPa West 7.8mph /  12.6km/h 15.4mph /  24.8km/h 67% 0in /  0.0mm
11:22 43.5 °F /  6.4 °C 33.8 °F /  1.0 °C 29.6in /  1003.9hPa West 8.7mph /  14.0km/h 11mph /  17.7km/h 67% 0in /  0.0mm
11:29 43.7 °F /  6.5 °C 33.8 °F /  1.0 °C 29.7in /  1005.0hPa West 10.1mph /  16.3km/h 17mph /  27.4km/h 66% 0in /  0.0mm
11:36 43.7 °F /  6.5 °C 33.8 °F /  1.0 °C 29.7in /  1005.0hPa WSW 6.7mph /  10.8km/h 17mph /  27.4km/h 66% 0in /  0.0mm
11:41 44.1 °F /  6.7 °C 33.8 °F /  1.0 °C 29.7in /  1005.0hPa West 10.5mph /  16.9km/h 19mph /  30.6km/h 65% 0in /  0.0mm
11:47 44.2 °F /  6.8 °C 33.8 °F /  1.0 °C 29.7in /  1005.0hPa WSW 9.6mph /  15.4km/h 19mph /  30.6km/h 65% 0in /  0.0mm
11:54 44.2 °F /  6.8 °C 33.8 °F /  1.0 °C 29.7in /  1005.0hPa NW 12.5mph /  20.1km/h 17.4mph /  28.0km/h 64% 0in /  0.0mm
12:00 44.6 °F /  7.0 °C 33.8 °F /  1.0 °C 29.7in /  1006.0hPa NNW 14.8mph /  23.8km/h 18.6mph /  29.9km/h 63% 0in /  0.0mm
12:11 45 °F /  7.2 °C 32 °F /  0.0 °C 29.7in /  1006.0hPa WNW 7.8mph /  12.6km/h 20.8mph /  33.5km/h 61% 0in /  0.0mm
12:22 45.1 °F /  7.3 °C 32 °F /  0.0 °C 29.7in /  1006.0hPa NW 18.8mph /  30.2km/h 23.3mph /  37.5km/h 59% 0in /  0.0mm
12:35 45.3 °F /  7.4 °C 32 °F /  0.0 °C 29.7in /  1006.0hPa West 11.4mph /  18.3km/h 19mph /  30.6km/h 60% 0in /  0.0mm
12:46 45.5 °F /  7.5 °C 33.8 °F /  1.0 °C 29.7in /  1006.0hPa West 8.1mph /  13.0km/h 19.7mph /  31.7km/h 61% 0in /  0.0mm
12:53 45.7 °F /  7.6 °C 33.8 °F /  1.0 °C 29.7in /  1006.0hPa West 7.6mph /  12.2km/h 19.7mph /  31.7km/h 61% 0in /  0.0mm
12:58 45.9 °F /  7.7 °C 33.8 °F /  1.0 °C 29.7in /  1007.0hPa NW 17.2mph /  27.7km/h 17.2mph /  27.7km/h 60% 0in /  0.0mm
13:05 45.5 °F /  7.5 °C 32 °F /  0.0 °C 29.7in /  1007.0hPa West 11.2mph /  18.0km/h 17.7mph /  28.5km/h 59% 0in /  0.0mm
13:15 45.3 °F /  7.4 °C 32 °F /  0.0 °C 29.7in /  1007.0hPa North 10.1mph /  16.3km/h 22.6mph /  36.4km/h 60% 0in /  0.0mm
13:29 45.1 °F /  7.3 °C 32 °F /  0.0 °C 29.7in /  1007.0hPa SW 13.2mph /  21.2km/h 23.9mph /  38.5km/h 59% 0in /  0.0mm
13:38 45.3 °F /  7.4 °C 32 °F /  0.0 °C 29.7in /  1007.0hPa South 13.2mph /  21.2km/h 23.3mph /  37.5km/h 60% 0in /  0.0mm
13:52 45.5 °F /  7.5 °C 32 °F /  0.0 °C 29.7in /  1007.0hPa West 13.2mph /  21.2km/h 23.5mph /  37.8km/h 59% 0in /  0.0mm
14:05 46 °F /  7.8 °C 32 °F /  0.0 °C 29.7in /  1007.0hPa NW 13.4mph /  21.6km/h 21.9mph /  35.2km/h 57% 0in /  0.0mm
14:25 46.2 °F /  7.9 °C 32 °F /  0.0 °C 29.7in /  1006.0hPa West 18.6mph /  29.9km/h 22.1mph /  35.6km/h 56% 0in /  0.0mm
14:32 46.2 °F /  7.9 °C 32 °F /  0.0 °C 29.7in /  1007.0hPa WSW 22.1mph /  35.6km/h 22.1mph /  35.6km/h 56% 0in /  0.0mm
14:38 46.4 °F /  8.0 °C 32 °F /  0.0 °C 29.7in /  1007.0hPa West 10.7mph /  17.2km/h 22.1mph /  35.6km/h 56% 0in /  0.0mm
14:44 46.4 °F /  8.0 °C 32 °F /  0.0 °C 29.7in /  1007.0hPa West 17mph /  27.4km/h 19.7mph /  31.7km/h 57% 0in /  0.0mm
14:52 46.2 °F /  7.9 °C 30.2 °F /  -1.0 °C 29.7in /  1007.0hPa WSW 15.7mph /  25.3km/h 22.6mph /  36.4km/h 55% 0in /  0.0mm
15:01 45.7 °F /  7.6 °C 30.2 °F /  -1.0 °C 29.7in /  1007.0hPa WSW 10.1mph /  16.3km/h 19.9mph /  32.0km/h 56% 0in /  0.0mm
15:06 45.7 °F /  7.6 °C 32 °F /  0.0 °C 29.7in /  1007.0hPa WSW 12.8mph /  20.6km/h 19.9mph /  32.0km/h 58% 0in /  0.0mm
15:14 46.2 °F /  7.9 °C 33.8 °F /  1.0 °C 29.7in /  1007.0hPa WNW 9.8mph /  15.8km/h 15.7mph /  25.3km/h 59% 0in /  0.0mm
15:20 45.9 °F /  7.7 °C 32 °F /  0.0 °C 29.7in /  1007.0hPa West 17.2mph /  27.7km/h 17.2mph /  27.7km/h 58% 0in /  0.0mm
15:26 45.5 °F /  7.5 °C 33.8 °F /  1.0 °C 29.7in /  1007.0hPa West 17.2mph /  27.7km/h 19.7mph /  31.7km/h 60% 0in /  0.0mm
16:05 45 °F /  7.2 °C 33.8 °F /  1.0 °C 29.8in /  1008.0hPa West 7.2mph /  11.6km/h 13.2mph /  21.2km/h 64% 0in /  0.0mm
16:11 44.4 °F /  6.9 °C 33.8 °F /  1.0 °C 29.8in /  1008.0hPa WSW 9.4mph /  15.1km/h 11mph /  17.7km/h 66% 0in /  0.0mm
16:18 44.1 °F /  6.7 °C 33.8 °F /  1.0 °C 29.8in /  1008.0hPa West 8.5mph /  13.7km/h 14.8mph /  23.8km/h 68% 0in /  0.0mm
16:38 43.3 °F /  6.3 °C 33.8 °F /  1.0 °C 29.8in /  1008.0hPa WSW 12.8mph /  20.6km/h 14.1mph /  22.7km/h 70% 0in /  0.0mm
17:04 42.1 °F /  5.6 °C 33.8 °F /  1.0 °C 29.8in /  1009.0hPa WSW 8.5mph /  13.7km/h 14.5mph /  23.3km/h 72% 0in /  0.0mm
17:12 42.1 °F /  5.6 °C 33.8 °F /  1.0 °C 29.8in /  1009.0hPa WSW 9.6mph /  15.4km/h 12.5mph /  20.1km/h 73% 0in /  0.0mm
17:20 41.7 °F /  5.4 °C 33.8 °F /  1.0 °C 29.8in /  1009.0hPa West 9.6mph /  15.4km/h 12.3mph /  19.8km/h 73% 0in /  0.0mm
17:30 41.7 °F /  5.4 °C 33.8 °F /  1.0 °C 29.8in /  1009.0hPa West 6.5mph /  10.5km/h 13.2mph /  21.2km/h 74% 0in /  0.0mm
17:35 41.9 °F /  5.5 °C 35.6 °F /  2.0 °C 29.8in /  1009.0hPa West 10.1mph /  16.3km/h 14.8mph /  23.8km/h 75% 0in /  0.0mm
17:40 42.1 °F /  5.6 °C 35.6 °F /  2.0 °C 29.8in /  1009.0hPa WSW 11.2mph /  18.0km/h 14.8mph /  23.8km/h 75% 0in /  0.0mm
17:50 42.3 °F /  5.7 °C 35.6 °F /  2.0 °C 29.8in /  1009.0hPa West 9.6mph /  15.4km/h 15.4mph /  24.8km/h 74% 0in /  0.0mm
17:59 42.1 °F /  5.6 °C 35.6 °F /  2.0 °C 29.8in /  1009.0hPa WSW 8.1mph /  13.0km/h 13.2mph /  21.2km/h 74% 0in /  0.0mm
18:06 41.9 °F /  5.5 °C 35.6 °F /  2.0 °C 29.8in /  1009.0hPa WSW 8.1mph /  13.0km/h 12.1mph /  19.5km/h 74% 0in /  0.0mm
18:17 41.7 °F /  5.4 °C 35.6 °F /  2.0 °C 29.8in /  1008.0hPa WSW 8.7mph /  14.0km/h 13.2mph /  21.2km/h 75% 0in /  0.0mm
18:29 41.5 °F /  5.3 °C 35.6 °F /  2.0 °C 29.8in /  1008.0hPa West 7.6mph /  12.2km/h 11.4mph /  18.3km/h 75% 0in /  0.0mm
18:39 41.2 °F /  5.1 °C 33.8 °F /  1.0 °C 29.8in /  1008.0hPa Calm   10.5mph /  16.9km/h 76% 0in /  0.0mm
18:46 40.8 °F /  4.9 °C 33.8 °F /  1.0 °C 29.8in /  1008.0hPa WSW 4mph /  6.4km/h 8.1mph /  13.0km/h 76% 0in /  0.0mm
18:55 40.5 °F /  4.7 °C 33.8 °F /  1.0 °C 29.8in /  1008.0hPa WSW 7.6mph /  12.2km/h 7.6mph /  12.2km/h 77% 0in /  0.0mm
19:07 41 °F /  5.0 °C 35.6 °F /  2.0 °C 29.8in /  1008.0hPa WSW 9.2mph /  14.8km/h 10.3mph /  16.6km/h 77% 0in /  0.0mm
19:17 40.6 °F /  4.8 °C 33.8 °F /  1.0 °C 29.8in /  1008.0hPa WSW 7.2mph /  11.6km/h 9.8mph /  15.8km/h 77% 0in /  0.0mm
19:29 39.7 °F /  4.3 °C 33.8 °F /  1.0 °C 29.8in /  1008.0hPa WSW 2.9mph /  4.7km/h 6mph /  9.7km/h 77% 0in /  0.0mm
19:45 39 °F /  3.9 °C 33.8 °F /  1.0 °C 29.8in /  1009.0hPa Calm   4.9mph /  7.9km/h 78% 0in /  0.0mm
20:02 38.8 °F /  3.8 °C 33.8 °F /  1.0 °C 29.8in /  1009.0hPa Calm   4.7mph /  7.6km/h 79% 0in /  0.0mm
20:12 38.1 °F /  3.4 °C 32 °F /  0.0 °C 29.8in /  1009.0hPa SW 4mph /  6.4km/h 5.4mph /  8.7km/h 79% 0in /  0.0mm
20:22 37.9 °F /  3.3 °C 33.8 °F /  1.0 °C 29.8in /  1009.0hPa WSW 4mph /  6.4km/h 5.4mph /  8.7km/h 80% 0in /  0.0mm
20:27 37.8 °F /  3.2 °C 33.8 °F /  1.0 °C 29.8in /  1009.0hPa WSW 4.3mph /  6.9km/h 4.9mph /  7.9km/h 81% 0in /  0.0mm
20:36 37.4 °F /  3.0 °C 32 °F /  0.0 °C 29.8in /  1009.0hPa Calm   4.3mph /  6.9km/h 81% 0in /  0.0mm
20:41 37.2 °F /  2.9 °C 33.8 °F /  1.0 °C 29.8in /  1009.0hPa Calm   2.5mph /  4.0km/h 82% 0in /  0.0mm
20:46 37 °F /  2.8 °C 33.8 °F /  1.0 °C 29.8in /  1009.0hPa Calm   2.5mph /  4.0km/h 82% 0in /  0.0mm
20:51 36.7 °F /  2.6 °C 32 °F /  0.0 °C 29.8in /  1009.0hPa Calm   3.6mph /  5.8km/h 82% 0in /  0.0mm
20:56 36.5 °F /  2.5 °C 32 °F /  0.0 °C 29.8in /  1009.0hPa Calm   3.6mph /  5.8km/h 82% 0in /  0.0mm
21:01 36.3 °F /  2.4 °C 32 °F /  0.0 °C 29.8in /  1009.0hPa Calm   4mph /  6.4km/h 83% 0in /  0.0mm
21:06 36.5 °F /  2.5 °C 32 °F /  0.0 °C 29.8in /  1009.0hPa Calm   4.7mph /  7.6km/h 83% 0in /  0.0mm
21:12 37 °F /  2.8 °C 33.8 °F /  1.0 °C 29.8in /  1009.0hPa WSW 5.4mph /  8.7km/h 5.8mph /  9.3km/h 84% 0in /  0.0mm
21:17 37.4 °F /  3.0 °C 33.8 °F /  1.0 °C 29.8in /  1009.0hPa Calm   6.3mph /  10.1km/h 85% 0in /  0.0mm
21:22 37.8 °F /  3.2 °C 33.8 °F /  1.0 °C 29.8in /  1009.0hPa West 5.6mph /  9.0km/h 6.3mph /  10.1km/h 86% 0in /  0.0mm
21:27 38.1 °F /  3.4 °C 33.8 °F /  1.0 °C 29.8in /  1009.0hPa WSW 3.8mph /  6.1km/h 5.8mph /  9.3km/h 86% 0in /  0.0mm
21:32 38.5 °F /  3.6 °C 35.6 °F /  2.0 °C 29.8in /  1009.0hPa WSW 5.6mph /  9.0km/h 5.6mph /  9.0km/h 86% 0in /  0.0mm
21:38 38.7 °F /  3.7 °C 35.6 °F /  2.0 °C 29.8in /  1009.0hPa WSW 5.6mph /  9.0km/h 7.6mph /  12.2km/h 86% 0in /  0.0mm
21:41 39 °F /  3.9 °C 35.6 °F /  2.0 °C 29.8in /  1009.0hPa WSW 6.9mph /  11.1km/h 7.6mph /  12.2km/h 87% 0in /  0.0mm
21:44 39 °F /  3.9 °C 35.6 °F /  2.0 °C 29.8in /  1009.0hPa SW 5.4mph /  8.7km/h 8.5mph /  13.7km/h 87% 0in /  0.0mm
21:46 39.4 °F /  4.1 °C 35.6 °F /  2.0 °C 29.8in /  1009.0hPa WSW 6mph /  9.7km/h 8.5mph /  13.7km/h 87% 0in /  0.0mm
21:51 39.7 °F /  4.3 °C 35.6 °F /  2.0 °C 29.8in /  1009.0hPa SW 5.4mph /  8.7km/h 8.5mph /  13.7km/h 86% 0in /  0.0mm
21:56 39.7 °F /  4.3 °C 35.6 °F /  2.0 °C 29.8in /  1009.0hPa WSW 4.9mph /  7.9km/h 7.6mph /  12.2km/h 86% 0in /  0.0mm
22:02 39.9 °F /  4.4 °C 35.6 °F /  2.0 °C 29.8in /  1009.0hPa SW 6.7mph /  10.8km/h 8.5mph /  13.7km/h 86% 0in /  0.0mm
22:05 40.3 °F /  4.6 °C 37.4 °F /  3.0 °C 29.8in /  1009.0hPa WSW 8.7mph /  14.0km/h 8.7mph /  14.0km/h 86% 0in /  0.0mm
22:10 40.3 °F /  4.6 °C 37.4 °F /  3.0 °C 29.8in /  1009.0hPa WSW 6.7mph /  10.8km/h 8.7mph /  14.0km/h 86% 0in /  0.0mm
22:11 40.3 °F /  4.6 °C 37.4 °F /  3.0 °C 29.8in /  1008.0hPa WSW 5.8mph /  9.3km/h 8.7mph /  14.0km/h 86% 0in /  0.0mm
22:15 40.6 °F /  4.8 °C 37.4 °F /  3.0 °C 29.8in /  1008.0hPa WSW 6.5mph /  10.5km/h 8.5mph /  13.7km/h 85% 0in /  0.0mm
22:20 41.4 °F /  5.2 °C 37.4 °F /  3.0 °C 29.8in /  1008.0hPa WSW 8.7mph /  14.0km/h 12.1mph /  19.5km/h 85% 0in /  0.0mm
22:21 41.5 °F /  5.3 °C 37.4 °F /  3.0 °C 29.8in /  1008.0hPa West 17.4mph /  28.0km/h 17.4mph /  28.0km/h 85% 0in /  0.0mm
22:22 41.5 °F /  5.3 °C 37.4 °F /  3.0 °C 29.8in /  1008.0hPa West 10.1mph /  16.3km/h 17.4mph /  28.0km/h 85% 0in /  0.0mm
22:24 41.9 °F /  5.5 °C 39.2 °F /  4.0 °C 29.8in /  1008.0hPa WSW 6.7mph /  10.8km/h 17.4mph /  28.0km/h 85% 0in /  0.0mm
22:26 41.9 °F /  5.5 °C 39.2 °F /  4.0 °C 29.8in /  1008.0hPa West 8.1mph /  13.0km/h 17.4mph /  28.0km/h 85% 0in /  0.0mm
22:31 41.9 °F /  5.5 °C 39.2 °F /  4.0 °C 29.8in /  1008.0hPa West 13.2mph /  21.2km/h 13.2mph /  21.2km/h 85% 0in /  0.0mm
22:32 41.9 °F /  5.5 °C 39.2 °F /  4.0 °C 29.8in /  1008.0hPa WSW 12.5mph /  20.1km/h 14.1mph /  22.7km/h 85% 0in /  0.0mm
22:33 41.9 °F /  5.5 °C 39.2 °F /  4.0 °C 29.8in /  1008.0hPa West 9.4mph /  15.1km/h 14.1mph /  22.7km/h 85% 0in /  0.0mm
22:37 43 °F /  6.1 °C 37.4 °F /  3.0 °C 29.8in /  1008.0hPa West 7.8mph /  12.6km/h 14.1mph /  22.7km/h 80% 0in /  0.0mm
22:39 43 °F /  6.1 °C 37.4 °F /  3.0 °C 29.8in /  1008.0hPa West 10.3mph /  16.6km/h 14.1mph /  22.7km/h 80% 0in /  0.0mm
22:44 43.2 °F /  6.2 °C 37.4 °F /  3.0 °C 29.8in /  1008.0hPa WSW 7.8mph /  12.6km/h 14.1mph /  22.7km/h 78% 0in /  0.0mm
22:48 43.2 °F /  6.2 °C 37.4 °F /  3.0 °C 29.8in /  1008.0hPa West 4.7mph /  7.6km/h 12.3mph /  19.8km/h 78% 0in /  0.0mm
22:49 43 °F /  6.1 °C 37.4 °F /  3.0 °C 29.8in /  1008.0hPa West 7.4mph /  11.9km/h 12.3mph /  19.8km/h 78% 0in /  0.0mm
22:53 43 °F /  6.1 °C 37.4 °F /  3.0 °C 29.8in /  1008.0hPa WSW 10.5mph /  16.9km/h 12.1mph /  19.5km/h 78% 0in /  0.0mm
22:59 43.2 °F /  6.2 °C 37.4 °F /  3.0 °C 29.7in /  1007.0hPa West 7.8mph /  12.6km/h 10.7mph /  17.2km/h 77% 0in /  0.0mm
23:04 43 °F /  6.1 °C 37.4 °F /  3.0 °C 29.7in /  1007.0hPa WSW 5.4mph /  8.7km/h 10.7mph /  17.2km/h 77% 0in /  0.0mm
23:09 43 °F /  6.1 °C 37.4 °F /  3.0 °C 29.7in /  1007.0hPa WSW 4.9mph /  7.9km/h 10.7mph /  17.2km/h 77% 0in /  0.0mm
23:14 42.8 °F /  6.0 °C 37.4 °F /  3.0 °C 29.7in /  1007.0hPa WSW 5.4mph /  8.7km/h 9.8mph /  15.8km/h 77% 0in /  0.0mm
23:19 42.4 °F /  5.8 °C 37.4 °F /  3.0 °C 29.7in /  1007.0hPa WSW 7.2mph /  11.6km/h 8.5mph /  13.7km/h 78% 0in /  0.0mm
23:24 42.4 °F /  5.8 °C 37.4 °F /  3.0 °C 29.7in /  1007.0hPa WSW 6mph /  9.7km/h 7.6mph /  12.2km/h 78% 0in /  0.0mm
23:29 42.4 °F /  5.8 °C 37.4 °F /  3.0 °C 29.7in /  1007.0hPa WSW 6mph /  9.7km/h 7.6mph /  12.2km/h 79% 0in /  0.0mm
23:34 42.4 °F /  5.8 °C 37.4 °F /  3.0 °C 29.7in /  1007.0hPa WSW 7.6mph /  12.2km/h 9.8mph /  15.8km/h 80% 0in /  0.0mm
23:39 42.4 °F /  5.8 °C 37.4 °F /  3.0 °C 29.7in /  1007.0hPa WSW 7.4mph /  11.9km/h 10.5mph /  16.9km/h 80% 0in /  0.0mm
23:44 42.4 °F /  5.8 °C 37.4 °F /  3.0 °C 29.7in /  1007.0hPa SW 6.5mph /  10.5km/h 10.5mph /  16.9km/h 80% 0in /  0.0mm
23:49 43 °F /  6.1 °C 37.4 °F /  3.0 °C 29.7in /  1007.0hPa WSW 13mph /  20.9km/h 16.3mph /  26.2km/h 80% 0in /  0.0mm
23:54 43.2 °F /  6.2 °C 37.4 °F /  3.0 °C 29.7in /  1007.0hPa WSW 14.3mph /  23.0km/h 16.3mph /  26.2km/h 80% 0in /  0.0mm
23:59 43.2 °F /  6.2 °C 37.4 °F /  3.0 °C 29.7in /  1007.0hPa WSW 10.1mph /  16.3km/h 14.3mph /  23.0km/h 81% 0in /  0.0mm
Données Historique de Météo Turbie

Mise a jour : 26/05/2018 16:06:13
Généré par Cumulus 1.9.4 (1099)